Time;durP1;ratioP1;P1;durP2;ratioP2;P2;SDS_P1;SDS_P2;PMS_P1;PMS_P2;Temp;Humidity;BMP_temperature;BMP_pressure;BME280_temperature;BME280_humidity;BME280_pressure;Samples;Min_cycle;Max_cycle;Signal;HPM_P1;HPM_P2
2021/03/13 00:01:05;;;;;;;;;6.50;5.00;;;;;14.03;39.54;97668.00;4809244;29;102144;-96
2021/03/13 00:03:33;;;;;;;;;4.25;3.75;;;;;14.06;39.88;97661.22;4794338;29;102116;-96
2021/03/13 00:06:01;;;;;;;;;5.00;4.00;;;;;14.08;39.93;97675.41;4782754;29;101593;-96
2021/03/13 00:08:28;;;;;;;;;5.00;4.50;;;;;14.11;39.67;97681.19;4809941;29;104065;-96
2021/03/13 00:10:55;;;;;;;;;4.00;4.00;;;;;14.15;39.96;97687.78;4795404;29;102046;-96
2021/03/13 00:13:22;;;;;;;;;4.75;4.50;;;;;14.11;40.34;97681.19;4798978;29;102122;-96
2021/03/13 00:15:48;;;;;;;;;4.75;3.75;;;;;14.11;40.23;97683.91;4812863;29;102189;-96
2021/03/13 00:18:16;;;;;;;;;4.50;4.00;;;;;14.09;40.37;97672.47;4793126;29;104239;-96
2021/03/13 00:20:43;;;;;;;;;5.00;4.00;;;;;14.14;39.29;97671.69;4791695;29;102063;-96
2021/03/13 00:23:10;;;;;;;;;4.00;4.00;;;;;14.17;40.10;97673.94;4807801;29;104037;-96
2021/03/13 00:25:38;;;;;;;;;5.00;4.25;;;;;14.17;40.37;97674.78;4809575;29;102106;-96
2021/03/13 00:28:05;;;;;;;;;2.25;2.00;;;;;14.22;39.55;97674.03;4806783;29;103122;-96
2021/03/13 00:30:36;;;;;;;;;3.00;3.00;;;;;14.25;39.83;97677.06;4795243;29;101614;-96
2021/03/13 00:33:08;;;;;;;;;7.50;5.00;;;;;14.22;40.39;97665.88;4797184;29;102217;-96
2021/03/13 00:35:36;;;;;;;;;3.75;3.75;;;;;14.18;39.31;97651.94;4812785;29;102120;-96
2021/03/13 00:38:04;;;;;;;;;3.50;3.00;;;;;14.27;40.21;97674.13;4811802;29;104021;-96
2021/03/13 00:40:31;;;;;;;;;4.00;4.00;;;;;14.24;39.56;97669.16;4796909;29;101623;-96
2021/03/13 00:42:59;;;;;;;;;4.00;4.00;;;;;14.31;39.71;97680.72;4811949;29;101890;-96
2021/03/13 00:45:27;;;;;;;;;4.75;3.75;;;;;14.29;39.16;97671.97;4804165;29;102231;-96
2021/03/13 00:47:55;;;;;;;;;5.75;5.25;;;;;14.25;40.31;97668.09;4782337;29;104354;-96
2021/03/13 00:50:23;;;;;;;;;8.25;5.25;;;;;14.32;39.60;97673.38;4798934;29;101757;-96
2021/03/13 00:52:50;;;;;;;;;4.75;4.00;;;;;14.26;39.24;97662.41;4795607;29;102149;-96
2021/03/13 00:55:17;;;;;;;;;4.50;4.00;;;;;14.28;40.10;97664.88;4782057;29;102166;-96
2021/03/13 00:57:44;;;;;;;;;4.75;4.00;;;;;14.34;39.53;97680.19;4803642;29;103976;-96
2021/03/13 01:00:21;;;;;;;;;4.00;4.00;;;;;14.32;39.53;97670.66;4810355;29;102188;-96
2021/03/13 01:02:48;;;;;;;;;6.25;5.75;;;;;14.30;39.91;97668.19;4792657;29;102064;-96
2021/03/13 01:05:15;;;;;;;;;6.50;5.00;;;;;14.27;39.60;97657.81;4807358;29;102432;-96
2021/03/13 01:07:43;;;;;;;;;7.00;6.00;;;;;14.34;40.28;97668.50;4786508;29;104253;-96
2021/03/13 01:10:13;;;;;;;;;4.00;3.75;;;;;14.38;39.51;97670.50;4796192;29;102166;-96
2021/03/13 01:12:43;;;;;;;;;4.50;4.50;;;;;14.34;39.73;97657.63;4795508;29;102083;-96
2021/03/13 01:15:17;;;;;;;;;5.25;4.75;;;;;14.37;39.50;97651.72;4812058;29;101879;-96
2021/03/13 01:17:48;;;;;;;;;7.00;6.00;;;;;14.39;39.42;97655.00;4812515;29;103193;-96
2021/03/13 01:20:18;;;;;;;;;5.00;4.75;;;;;14.32;39.78;97638.03;4811563;29;102155;-96
2021/03/13 01:22:49;;;;;;;;;6.00;4.25;;;;;14.34;39.77;97638.59;4798088;29;101819;-96
2021/03/13 01:25:19;;;;;;;;;5.25;3.75;;;;;14.39;39.57;97646.84;4812021;29;102111;-96
2021/03/13 01:27:48;;;;;;;;;6.00;4.25;;;;;14.37;40.14;97635.38;4796110;29;103185;-96
2021/03/13 01:30:21;;;;;;;;;4.25;3.50;;;;;14.43;40.00;97645.28;4793148;29;102145;-96
2021/03/13 01:32:51;;;;;;;;;4.25;3.50;;;;;14.42;40.15;97643.63;4809790;29;102038;-96
2021/03/13 01:35:21;;;;;;;;;7.25;6.00;;;;;14.41;39.74;97639.28;4797564;29;102151;-96
2021/03/13 01:37:50;;;;;;;;;3.75;3.00;;;;;14.44;39.52;97641.50;4802391;29;105523;-96
2021/03/13 01:40:17;;;;;;;;;4.75;3.25;;;;;14.32;39.43;97619.78;4793201;29;102090;-96
2021/03/13 01:42:47;;;;;;;;;5.00;4.00;;;;;14.43;39.23;97629.78;4792197;29;102082;-96
2021/03/13 01:45:16;;;;;;;;;3.00;3.00;;;;;14.44;39.34;97631.44;4792566;29;102109;-96
2021/03/13 01:47:44;;;;;;;;;4.00;4.00;;;;;14.38;40.25;97620.72;4791370;29;103006;-96
2021/03/13 01:50:12;;;;;;;;;6.00;4.50;;;;;14.41;40.11;97625.69;4791336;29;101827;-96
2021/03/13 01:52:39;;;;;;;;;4.50;4.50;;;;;14.36;40.27;97612.00;4802224;29;101599;-96
2021/03/13 01:55:10;;;;;;;;;4.75;3.00;;;;;14.40;39.48;97624.84;4793516;29;108394;-96
2021/03/13 01:57:37;;;;;;;;;2.75;2.75;;;;;14.39;40.17;97611.50;4805729;29;103256;-96
2021/03/13 02:00:17;;;;;;;;;6.00;5.00;;;;;14.37;39.46;97616.34;4808134;29;101880;-96
2021/03/13 02:02:44;;;;;;;;;3.00;3.00;;;;;14.40;39.49;97616.69;4802140;29;102128;-96
2021/03/13 02:05:25;;;;;;;;;4.50;3.00;;;;;14.40;39.48;97611.25;4742305;29;102206;-96
2021/03/13 02:08:08;;;;;;;;;5.25;4.25;;;;;14.43;39.36;97618.09;4760180;29;103382;-96
2021/03/13 02:11:03;;;;;;;;;5.00;4.00;;;;;14.43;39.93;97613.47;4745549;29;101884;-96
2021/03/13 02:13:42;;;;;;;;;6.50;5.00;;;;;14.44;39.70;97615.13;4791671;29;101806;-96
2021/03/13 02:16:32;;;;;;;;;4.75;3.00;;;;;14.42;39.38;97600.94;4794196;29;102141;-96
2021/03/13 02:19:21;;;;;;;;;2.75;2.75;;;;;14.48;40.04;97612.72;4789481;29;107732;-96
2021/03/13 02:21:55;;;;;;;;;4.50;4.00;;;;;14.48;39.65;97599.13;4808909;29;103830;-96
2021/03/13 02:24:27;;;;;;;;;3.25;3.25;;;;;14.49;39.25;97596.16;4792062;29;105408;-96
2021/03/13 02:27:03;;;;;;;;;8.00;5.00;;;;;14.50;39.60;97592.34;4790819;29;101797;-96
2021/03/13 02:29:36;;;;;;;;;4.50;3.50;;;;;14.51;39.93;97593.16;4791387;29;108329;-96
2021/03/13 02:32:37;;;;;;;;;5.00;4.00;;;;;14.48;40.17;97558.31;4793098;29;102131;-96
2021/03/13 02:35:11;;;;;;;;;5.75;5.00;;;;;14.50;39.53;97570.59;4679406;29;102316;-96
2021/03/13 02:37:45;;;;;;;;;5.75;3.75;;;;;14.51;40.38;97566.78;4795372;29;102115;-96
2021/03/13 02:40:17;;;;;;;;;4.50;4.50;;;;;14.50;39.78;97564.34;4809827;29;103207;-96
2021/03/13 02:42:53;;;;;;;;;3.00;3.00;;;;;14.52;39.57;97573.88;4794539;29;101935;-96
2021/03/13 02:45:29;;;;;;;;;5.50;4.75;;;;;14.54;39.75;97573.66;4808157;29;101725;-96
2021/03/13 02:47:57;;;;;;;;;4.00;4.00;;;;;14.49;39.77;97568.97;4794614;29;102136;-96
2021/03/13 02:50:25;;;;;;;;;3.75;3.00;;;;;14.51;39.37;97576.84;4795789;29;108246;-96
2021/03/13 02:52:52;;;;;;;;;5.00;4.00;;;;;14.50;40.02;97559.69;4796013;29;102111;-96
2021/03/13 02:55:20;;;;;;;;;3.25;2.50;;;;;14.50;40.24;97569.78;4794044;29;101632;-96
2021/03/13 02:57:56;;;;;;;;;6.00;5.00;;;;;14.55;39.74;97569.84;4914404;27;102919;-88
2021/03/13 03:00:24;;;;;;;;;2.00;1.00;;;;;14.56;39.65;97557.88;4901240;28;102877;-87
2021/03/13 03:02:55;;;;;;;;;6.00;5.00;;;;;14.58;39.78;97566.63;4897445;28;104839;-87
2021/03/13 03:05:24;;;;;;;;;5.50;4.25;;;;;14.57;39.41;97562.25;4895387;28;103063;-87
2021/03/13 03:07:52;;;;;;;;;4.00;4.00;;;;;14.59;39.49;97560.13;4898062;28;102707;-87
2021/03/13 03:10:19;;;;;;;;;5.75;4.00;;;;;14.59;39.47;97560.91;4894083;28;105561;-87
2021/03/13 03:12:49;;;;;;;;;4.25;4.00;;;;;14.60;39.03;97548.13;4890244;28;103978;-88
2021/03/13 03:15:17;;;;;;;;;4.00;3.00;;;;;14.60;39.60;97550.84;4899488;28;102713;-87
2021/03/13 03:17:44;;;;;;;;;3.50;3.50;;;;;14.62;39.48;97552.28;4895184;28;103685;-88
2021/03/13 03:20:11;;;;;;;;;4.00;4.00;;;;;14.63;39.21;97550.38;4900725;28;103045;-87
2021/03/13 03:22:38;;;;;;;;;5.00;4.25;;;;;14.63;39.36;97547.66;4875028;28;106266;-87
2021/03/13 03:25:07;;;;;;;;;4.25;4.00;;;;;14.64;39.64;97543.84;4896605;28;104976;-88
2021/03/13 03:27:33;;;;;;;;;3.00;3.00;;;;;14.64;39.36;97538.41;4895842;28;105212;-87
2021/03/13 03:30:01;;;;;;;;;4.00;3.25;;;;;14.64;39.91;97533.78;4901751;28;103014;-87
2021/03/13 03:32:29;;;;;;;;;4.50;3.00;;;;;14.64;39.73;97541.13;4872315;28;104571;-87
2021/03/13 03:34:55;;;;;;;;;4.50;4.00;;;;;14.65;39.19;97534.59;4892706;28;102829;-88
2021/03/13 03:37:22;;;;;;;;;3.00;3.00;;;;;14.64;39.39;97541.94;4881533;28;103697;-88
2021/03/13 03:39:49;;;;;;;;;5.25;4.25;;;;;14.65;39.56;97538.16;4874283;28;106688;-88
2021/03/13 03:42:16;;;;;;;;;4.25;4.00;;;;;14.65;39.35;97534.59;4872295;28;104645;-88
2021/03/13 03:44:45;;;;;;;;;3.00;3.00;;;;;14.67;39.41;97532.47;4867090;28;103071;-87
2021/03/13 03:47:12;;;;;;;;;5.00;3.25;;;;;14.66;39.61;97525.38;4848429;28;102898;-87
2021/03/13 03:49:39;;;;;;;;;5.75;4.25;;;;;14.68;39.32;97521.31;4842425;28;104813;-87
2021/03/13 03:52:06;;;;;;;;;5.00;4.00;;;;;14.67;39.88;97521.59;4866879;28;104044;-87
2021/03/13 03:54:35;;;;;;;;;4.25;3.00;;;;;14.69;39.40;97508.53;4875100;28;105449;-87
2021/03/13 03:57:07;;;;;;;;;3.00;3.00;;;;;14.70;39.90;97505.56;4852746;28;102972;-87
2021/03/13 03:59:34;;;;;;;;;4.00;3.50;;;;;14.73;39.41;97515.09;4851449;28;102993;-87
2021/03/13 04:02:01;;;;;;;;;4.75;3.75;;;;;14.72;39.52;97511.56;4852045;28;103954;-87
2021/03/13 04:04:28;;;;;;;;;6.00;5.25;;;;;14.74;39.40;97500.44;4873743;28;103725;-87
2021/03/13 04:06:55;;;;;;;;;6.00;5.00;;;;;14.74;39.25;97505.88;4870599;28;105061;-87
2021/03/13 04:09:23;;;;;;;;;5.50;5.00;;;;;14.74;39.70;97495.00;4855624;28;105675;-88
2021/03/13 04:11:51;;;;;;;;;5.00;4.00;;;;;14.74;39.39;97508.59;4865401;28;103059;-88
2021/03/13 04:14:18;;;;;;;;;3.75;3.75;;;;;14.74;39.15;97500.44;4860310;28;102651;-87
2021/03/13 04:16:44;;;;;;;;;3.50;3.50;;;;;14.73;39.17;97501.50;4864785;28;102924;-87
2021/03/13 04:19:11;;;;;;;;;3.75;3.75;;;;;14.72;39.65;97508.84;4868034;28;104558;-87
2021/03/13 04:21:39;;;;;;;;;7.50;5.25;;;;;14.71;39.21;97500.94;4837183;28;104628;-87
2021/03/13 04:24:06;;;;;;;;;6.50;5.75;;;;;14.70;39.59;97485.69;4866400;28;102652;-87
2021/03/13 04:26:33;;;;;;;;;4.00;4.00;;;;;14.68;39.79;97498.72;4859631;28;103598;-87
2021/03/13 04:29:00;;;;;;;;;5.25;4.00;;;;;14.67;39.27;97494.38;4818997;28;103044;-86
2021/03/13 04:31:29;;;;;;;;;6.00;5.00;;;;;14.65;39.16;97496.50;4868823;28;104801;-87
2021/03/13 04:33:56;;;;;;;;;5.00;3.75;;;;;14.63;39.64;97504.13;4857825;28;103465;-87
2021/03/13 04:36:25;;;;;;;;;4.00;3.50;;;;;14.61;39.36;97504.38;4854345;28;103799;-87
2021/03/13 04:38:52;;;;;;;;;6.25;4.75;;;;;14.57;39.78;97500.50;4874633;28;102953;-88
2021/03/13 04:41:19;;;;;;;;;4.25;4.00;;;;;14.57;39.32;97500.50;4858229;28;104188;-87
2021/03/13 04:43:45;;;;;;;;;4.00;4.00;;;;;14.55;39.24;97494.50;4852904;28;102681;-87
2021/03/13 04:46:12;;;;;;;;;6.00;5.00;;;;;14.51;39.77;97487.91;4849668;28;102785;-76
2021/03/13 04:48:39;;;;;;;;;4.00;4.00;;;;;14.51;39.16;97481.66;4850836;28;105971;-76
2021/03/13 04:51:06;;;;;;;;;4.00;4.00;;;;;14.49;39.22;97475.66;4859642;28;104676;-76
2021/03/13 04:53:33;;;;;;;;;5.75;4.75;;;;;14.46;39.51;97482.41;4844543;28;104801;-76
2021/03/13 04:56:00;;;;;;;;;5.25;4.00;;;;;14.44;39.76;97467.44;4858363;28;102932;-76
2021/03/13 04:58:28;;;;;;;;;4.75;4.00;;;;;14.40;39.92;97460.84;4850004;28;102893;-76
2021/03/13 05:00:55;;;;;;;;;4.50;4.00;;;;;14.40;39.17;97472.56;4861274;28;104361;-76
2021/03/13 05:03:37;;;;;;;;;6.75;5.75;;;;;14.38;39.30;97469.25;4802856;28;103831;-76
2021/03/13 05:06:04;;;;;;;;;6.00;5.00;;;;;14.36;39.93;97459.72;4853437;28;102567;-75
2021/03/13 05:08:31;;;;;;;;;6.00;5.00;;;;;14.32;40.07;97458.56;4867437;28;102913;-76
2021/03/13 05:10:58;;;;;;;;;5.00;3.75;;;;;14.29;39.48;97457.97;4862336;28;104301;-76
2021/03/13 05:13:25;;;;;;;;;6.00;5.00;;;;;14.27;40.15;97460.09;4852950;28;104365;-76
2021/03/13 05:15:52;;;;;;;;;5.25;5.00;;;;;14.24;39.65;97471.50;4860929;28;102985;-87
2021/03/13 05:18:19;;;;;;;;;4.75;4.75;;;;;14.20;39.49;97474.97;4854030;28;104074;-87
2021/03/13 05:20:45;;;;;;;;;4.75;4.25;;;;;14.20;40.03;97478.50;4858083;28;104049;-87
2021/03/13 05:23:12;;;;;;;;;6.75;4.00;;;;;14.17;40.01;97472.75;4863575;28;102857;-87
2021/03/13 05:25:38;;;;;;;;;4.50;4.50;;;;;14.17;40.32;97484.47;4837237;28;104001;-87
2021/03/13 05:28:05;;;;;;;;;4.00;4.00;;;;;14.15;39.55;97483.88;4862591;28;102969;-87
2021/03/13 05:30:32;;;;;;;;;6.00;5.00;;;;;14.14;40.27;97479.50;4855288;28;104353;-87
2021/03/13 05:32:58;;;;;;;;;5.50;4.00;;;;;14.12;39.43;97480.84;4856407;28;102828;-87
2021/03/13 05:35:25;;;;;;;;;4.00;4.00;;;;;14.09;40.16;97475.91;4863474;28;102796;-87
2021/03/13 05:37:52;;;;;;;;;5.00;5.00;;;;;14.09;40.00;97481.34;4856034;28;103096;-87
2021/03/13 05:40:23;;;;;;;;;5.50;4.50;;;;;14.06;39.89;97485.38;4849500;28;104514;-87
2021/03/13 05:42:50;;;;;;;;;3.00;3.00;;;;;14.07;40.31;97483.50;4865722;28;102752;-87
2021/03/13 05:45:16;;;;;;;;;6.00;5.00;;;;;14.05;39.43;97486.44;4854901;28;104383;-87
2021/03/13 05:47:43;;;;;;;;;5.00;3.50;;;;;14.01;40.37;97485.31;4855673;28;102983;-87
2021/03/13 05:50:12;;;;;;;;;5.00;5.00;;;;;14.00;39.47;97501.88;4859955;28;105360;-87
2021/03/13 05:52:39;;;;;;;;;4.00;3.75;;;;;13.96;39.95;97501.53;4843910;28;102905;-87
2021/03/13 05:55:07;;;;;;;;;6.50;4.00;;;;;13.96;40.00;97504.25;4857173;28;102924;-87
2021/03/13 05:57:34;;;;;;;;;6.25;5.00;;;;;13.93;40.35;97518.34;4855281;28;103485;-87
2021/03/13 06:00:02;;;;;;;;;6.00;5.50;;;;;13.91;39.93;97509.63;4859470;28;104950;-87
2021/03/13 06:02:29;;;;;;;;;5.00;5.00;;;;;13.88;40.24;97512.81;4855034;28;102824;-87
2021/03/13 06:04:56;;;;;;;;;5.50;4.00;;;;;13.84;40.48;97500.81;4860873;28;104857;-87
2021/03/13 06:07:24;;;;;;;;;6.00;4.00;;;;;13.83;40.20;97496.44;4854461;28;102982;-87
2021/03/13 06:09:55;;;;;;;;;4.00;4.00;;;;;13.80;40.78;97499.66;4861516;28;103937;-87
2021/03/13 06:12:23;;;;;;;;;3.75;3.75;;;;;13.79;40.61;97498.00;4856967;28;102862;-87
2021/03/13 06:14:50;;;;;;;;;4.25;3.75;;;;;13.76;40.46;97495.81;4838989;28;102990;-76
2021/03/13 06:17:18;;;;;;;;;6.00;5.00;;;;;13.74;39.77;97501.47;4860380;28;102953;-76
2021/03/13 06:19:57;;;;;;;;;5.00;4.75;;;;;13.71;40.81;97501.16;4867561;28;104365;-76
2021/03/13 06:22:41;;;;;;;;;4.00;4.00;;;;;13.69;40.68;97495.13;4850552;28;102913;-76
2021/03/13 06:25:10;;;;;;;;;4.75;4.50;;;;;13.67;40.84;97500.00;4793533;28;103320;-76
2021/03/13 06:27:37;;;;;;;;;5.00;4.00;;;;;13.64;40.96;97489.66;4858112;28;104429;-76
2021/03/13 06:30:08;;;;;;;;;4.25;4.00;;;;;13.64;40.84;97504.06;4863941;28;104041;-76
2021/03/13 06:32:35;;;;;;;;;4.50;3.00;;;;;13.63;40.29;97512.44;4854366;28;103345;-76
2021/03/13 06:35:29;;;;;;;;;4.75;4.00;;;;;13.60;40.76;97508.31;4857891;28;102990;-76
2021/03/13 06:37:59;;;;;;;;;5.00;5.00;;;;;13.58;40.55;97515.06;4794375;28;102952;-76
2021/03/13 06:40:33;;;;;;;;;5.75;4.00;;;;;13.57;40.39;97519.69;4847710;28;104041;-76
2021/03/13 06:43:01;;;;;;;;;3.50;3.50;;;;;13.55;40.85;97518.28;4877543;28;102761;-76
2021/03/13 06:45:28;;;;;;;;;5.25;4.25;;;;;13.53;40.47;97521.25;4852344;28;102858;-76
2021/03/13 06:47:55;;;;;;;;;3.75;3.75;;;;;13.52;40.03;97529.63;4853120;28;102997;-76
2021/03/13 06:50:28;;;;;;;;;1.75;1.75;;;;;13.51;39.91;97519.84;4857492;28;104168;-76
2021/03/13 06:53:07;;;;;;;;;4.00;3.00;;;;;13.49;40.34;97519.25;4848518;28;102974;-76
2021/03/13 06:55:34;;;;;;;;;3.75;3.75;;;;;13.45;40.62;97528.97;4847564;28;105255;-79
2021/03/13 06:58:09;;;;;;;;;3.00;2.50;;;;;13.46;40.60;97536.06;4864140;28;104522;-87
2021/03/13 07:00:40;;;;;;;;;4.75;4.75;;;;;13.45;40.57;97542.56;4798088;28;109688;-88
2021/03/13 07:03:11;;;;;;;;;4.00;4.00;;;;;13.42;40.85;97535.69;4860649;28;102941;-87
2021/03/13 07:05:39;;;;;;;;;5.00;4.00;;;;;13.39;40.87;97539.75;4850570;28;102846;-87
2021/03/13 07:08:27;;;;;;;;;4.75;4.75;;;;;13.40;41.19;97548.72;4844328;28;105232;-87
2021/03/13 07:11:03;;;;;;;;;3.50;3.00;;;;;13.38;40.19;97551.66;4859651;28;104236;-88
2021/03/13 07:13:32;;;;;;;;;3.00;3.00;;;;;13.37;40.86;97546.50;4862647;28;102764;-88
2021/03/13 07:16:21;;;;;;;;;3.00;3.00;;;;;13.36;41.07;97553.81;4857282;28;105395;-87
2021/03/13 07:18:48;;;;;;;;;3.00;3.00;;;;;13.34;40.66;97542.38;4736119;28;102892;-87
2021/03/13 07:21:15;;;;;;;;;5.00;3.00;;;;;13.33;40.37;97548.84;4851966;28;104112;-87
2021/03/13 07:23:42;;;;;;;;;3.00;3.00;;;;;13.32;40.71;97541.81;4854844;28;102857;-87
2021/03/13 07:26:12;;;;;;;;;3.75;3.00;;;;;13.31;40.96;97548.28;4849080;28;103088;-88
2021/03/13 07:28:39;;;;;;;;;4.00;3.75;;;;;13.31;40.92;97545.56;4855485;28;104315;-87
2021/03/13 07:31:07;;;;;;;;;4.00;4.00;;;;;13.31;40.64;97553.72;4836231;28;104263;-88
2021/03/13 07:33:34;;;;;;;;;4.00;4.00;;;;;13.29;40.40;97560.44;4851168;28;102786;-84
2021/03/13 07:36:01;;;;;;;;;5.25;4.25;;;;;13.30;40.63;97570.25;4861158;28;102940;-88
2021/03/13 07:38:27;;;;;;;;;3.25;3.25;;;;;13.30;40.61;97571.06;4871349;28;103146;-87
2021/03/13 07:40:54;;;;;;;;;4.25;4.00;;;;;13.27;41.10;97563.44;4840052;28;104632;-88
2021/03/13 07:43:21;;;;;;;;;4.50;3.25;;;;;13.28;41.15;97570.47;4867592;28;102748;-87
2021/03/13 07:45:48;;;;;;;;;3.25;3.00;;;;;13.27;40.25;97554.44;4836437;28;102957;-87
2021/03/13 07:48:15;;;;;;;;;4.50;3.00;;;;;13.26;41.26;97563.66;4853182;28;103314;-87
2021/03/13 07:50:46;;;;;;;;;4.50;4.00;;;;;13.26;40.73;97569.09;4866293;28;104489;-87
2021/03/13 07:53:13;;;;;;;;;4.75;4.00;;;;;13.27;40.46;97565.31;4855010;28;102727;-87
2021/03/13 07:55:43;;;;;;;;;3.75;3.25;;;;;13.23;40.57;97575.84;4857830;28;102855;-87
2021/03/13 07:58:10;;;;;;;;;3.75;3.75;;;;;13.24;41.09;97588.31;4842703;28;103078;-87
2021/03/13 08:00:44;;;;;;;;;4.00;3.00;;;;;13.21;40.92;97577.97;4846610;28;104330;-87
2021/03/13 08:03:29;;;;;;;;;4.00;3.25;;;;;13.22;40.85;97585.03;4861497;28;102835;-87
2021/03/13 08:05:57;;;;;;;;;3.50;3.50;;;;;13.20;40.38;97576.31;4880808;28;102765;-88
2021/03/13 08:08:50;;;;;;;;;4.00;3.00;;;;;13.22;41.14;97593.19;4860870;28;102932;-88
2021/03/13 08:11:20;;;;;;;;;4.25;3.25;;;;;13.20;40.64;97576.31;4799471;28;108799;-88
2021/03/13 08:13:50;;;;;;;;;4.00;3.00;;;;;13.19;40.42;97580.06;4856422;28;103829;-87
2021/03/13 08:16:35;;;;;;;;;2.00;2.00;;;;;13.16;40.41;97569.72;4866213;28;102846;-87
2021/03/13 08:19:02;;;;;;;;;3.00;3.00;;;;;13.18;40.98;97593.91;4855420;28;103010;-88
2021/03/13 08:21:34;;;;;;;;;3.00;3.00;;;;;13.16;40.55;97580.56;4859866;28;104002;-87
2021/03/13 08:24:02;;;;;;;;;3.00;3.00;;;;;13.17;40.13;97593.09;4858759;28;102894;-87
2021/03/13 08:26:35;;;;;;;;;3.50;3.00;;;;;13.14;40.51;97588.16;4856535;28;104517;-88
2021/03/13 08:29:06;;;;;;;;;3.00;2.00;;;;;13.14;40.58;97590.03;4855705;28;105230;-88
2021/03/13 08:31:39;;;;;;;;;3.50;3.00;;;;;13.13;40.39;97591.09;4860431;28;108847;-87
2021/03/13 08:34:07;;;;;;;;;2.50;2.00;;;;;13.12;41.00;97597.59;4856888;28;102865;-87
2021/03/13 08:36:39;;;;;;;;;2.75;2.00;;;;;13.12;40.48;97576.69;4857687;28;102900;-88
2021/03/13 08:39:14;;;;;;;;;3.00;2.50;;;;;13.11;40.74;97585.06;4862746;28;102885;-87
2021/03/13 08:41:40;;;;;;;;;2.75;2.75;;;;;13.10;40.48;97586.97;4844586;28;104717;-87
2021/03/13 08:44:31;;;;;;;;;3.00;3.00;;;;;13.10;40.23;97581.53;4856349;28;103123;-87
2021/03/13 08:47:11;;;;;;;;;3.00;2.50;;;;;13.09;40.80;97581.75;4858721;28;102834;-87
2021/03/13 08:49:40;;;;;;;;;4.25;3.50;;;;;13.08;40.48;97589.06;4851734;28;102877;-87
2021/03/13 08:52:09;;;;;;;;;3.25;2.50;;;;;13.08;41.11;97585.53;4850731;28;103874;-78
2021/03/13 08:54:41;;;;;;;;;2.00;2.00;;;;;13.06;40.17;97577.63;4868811;28;104482;-87
2021/03/13 08:57:12;;;;;;;;;3.00;2.00;;;;;13.05;40.85;97576.00;4860242;28;102956;-87
2021/03/13 08:59:43;;;;;;;;;2.25;2.00;;;;;13.06;40.83;97588.47;4852071;28;103710;-88
2021/03/13 09:02:11;;;;;;;;;4.00;2.75;;;;;13.05;40.33;97589.56;4866536;28;104006;-88
2021/03/13 09:04:42;;;;;;;;;3.00;2.00;;;;;13.05;41.23;97586.84;4850817;28;103913;-87
2021/03/13 09:07:09;;;;;;;;;2.50;2.00;;;;;13.05;40.46;97581.44;4860840;28;103055;-87
2021/03/13 09:09:37;;;;;;;;;2.00;2.00;;;;;13.04;41.04;97587.91;4873839;28;103021;-87
2021/03/13 09:12:07;;;;;;;;;2.00;2.00;;;;;13.04;40.24;97587.09;4861763;28;104507;-88
2021/03/13 09:14:34;;;;;;;;;3.00;2.00;;;;;13.03;40.95;97580.00;4856228;28;102627;-87
2021/03/13 09:17:14;;;;;;;;;2.00;2.00;;;;;13.03;40.47;97588.97;4857013;28;102854;-88
2021/03/13 09:19:42;;;;;;;;;3.00;2.00;;;;;13.02;41.17;97584.59;4801051;28;105201;-87
2021/03/13 09:22:13;;;;;;;;;2.75;2.00;;;;;13.02;40.39;97587.31;4852158;28;103887;-87
2021/03/13 09:24:40;;;;;;;;;2.50;2.00;;;;;13.02;41.13;97590.03;4866527;28;102929;-76
2021/03/13 09:27:08;;;;;;;;;1.75;1.75;;;;;13.02;40.42;97562.06;4846172;28;102877;-76
2021/03/13 09:29:37;;;;;;;;;2.50;2.50;;;;;13.02;40.32;97573.75;4856520;28;102981;-76
2021/03/13 09:32:07;;;;;;;;;1.00;1.00;;;;;13.02;40.78;97562.91;4848177;28;108689;-76
2021/03/13 09:34:38;;;;;;;;;1.75;1.75;;;;;13.03;40.44;97561.84;4844429;28;102604;-76
2021/03/13 09:37:14;;;;;;;;;2.00;1.50;;;;;13.03;40.43;97563.72;4853276;28;102800;-76
2021/03/13 09:39:42;;;;;;;;;2.00;2.00;;;;;13.03;41.06;97559.13;4757376;28;102934;-76
2021/03/13 09:42:17;;;;;;;;;2.75;2.00;;;;;13.04;40.73;97555.34;4857839;28;104125;-76
2021/03/13 09:44:51;;;;;;;;;3.50;2.00;;;;;13.05;40.25;97556.19;4858405;28;102831;-76
2021/03/13 09:47:46;;;;;;;;;2.00;2.00;;;;;13.05;40.43;97553.47;4859405;28;102852;-76
2021/03/13 09:50:20;;;;;;;;;3.00;2.25;;;;;13.05;40.83;97548.88;4788922;28;104684;-76
2021/03/13 09:52:48;;;;;;;;;2.00;2.00;;;;;13.05;40.59;97557.00;4853042;28;104322;-76
2021/03/13 09:55:16;;;;;;;;;2.00;2.00;;;;;13.04;40.62;97536.34;4847084;28;102857;-87
2021/03/13 09:57:48;;;;;;;;;2.25;2.25;;;;;13.05;40.33;97540.72;4848906;28;102899;-88
2021/03/13 10:00:20;;;;;;;;;1.00;1.00;;;;;13.05;40.63;97534.47;4852411;28;102892;-87
2021/03/13 10:02:49;;;;;;;;;2.25;2.25;;;;;13.05;40.39;97540.72;4856172;28;104529;-87
2021/03/13 10:05:18;;;;;;;;;1.75;1.75;;;;;13.04;41.15;97532.81;4852210;28;103806;-87
2021/03/13 10:07:48;;;;;;;;;1.50;1.50;;;;;13.03;40.39;97533.88;4844016;28;102903;-87
2021/03/13 10:10:20;;;;;;;;;1.50;1.50;;;;;13.03;40.67;97528.44;4847034;28;102669;-87
2021/03/13 10:12:51;;;;;;;;;1.00;1.00;;;;;13.05;40.94;97521.72;4850484;28;104797;-88
2021/03/13 10:15:27;;;;;;;;;1.00;0.50;;;;;13.03;40.22;97523.84;4847154;28;102838;-88
2021/03/13 10:17:57;;;;;;;;;3.25;2.75;;;;;13.03;40.91;97523.84;4862350;28;104463;-88
2021/03/13 10:20:31;;;;;;;;;1.25;1.00;;;;;13.03;40.41;97520.31;4839074;28;102908;-88
2021/03/13 10:23:03;;;;;;;;;2.50;2.25;;;;;13.03;40.02;97514.88;4851678;28;103987;-88
2021/03/13 10:25:30;;;;;;;;;1.50;1.50;;;;;13.03;40.48;97504.84;4852800;28;103647;-88
2021/03/13 10:28:13;;;;;;;;;1.50;1.00;;;;;13.04;40.34;97511.94;4842172;28;102971;-88
2021/03/13 10:30:44;;;;;;;;;4.00;1.75;;;;;13.03;40.80;97502.13;4844132;28;102893;-87
2021/03/13 10:33:14;;;;;;;;;1.75;1.00;;;;;13.00;40.76;97510.78;4870621;28;104304;-87
2021/03/13 10:35:46;;;;;;;;;3.00;1.50;;;;;13.02;40.95;97514.03;4846859;28;102801;-87
2021/03/13 10:38:18;;;;;;;;;2.50;1.25;;;;;13.02;40.13;97519.47;4844133;28;104788;-87
2021/03/13 10:40:49;;;;;;;;;4.00;2.25;;;;;13.03;40.38;97504.84;4839929;28;102904;-87
2021/03/13 10:43:27;;;;;;;;;2.50;1.00;;;;;13.02;40.84;97499.66;4839882;28;103886;-87
2021/03/13 10:45:57;;;;;;;;;2.00;2.00;;;;;13.05;40.02;97502.72;4851378;28;102816;-87
2021/03/13 10:48:24;;;;;;;;;2.00;2.00;;;;;13.04;40.15;97490.22;4851858;28;103305;-88
2021/03/13 10:50:51;;;;;;;;;2.00;2.00;;;;;13.05;40.02;97489.16;4851623;28;102922;-87
2021/03/13 10:53:39;;;;;;;;;2.00;1.00;;;;;13.05;40.42;97489.16;4849814;28;104022;-87
2021/03/13 10:56:07;;;;;;;;;1.25;1.00;;;;;13.08;40.40;97491.38;4865031;28;102733;-88
2021/03/13 10:58:57;;;;;;;;;2.00;2.00;;;;;13.08;40.88;97461.53;4852415;28;103037;-87
2021/03/13 11:01:25;;;;;;;;;1.00;1.00;;;;;13.11;40.20;97473.81;4749655;28;103023;-88
2021/03/13 11:03:53;;;;;;;;;2.00;1.00;;;;;13.12;40.66;97465.41;4853352;28;104616;-87
2021/03/13 11:06:30;;;;;;;;;1.00;1.00;;;;;13.12;40.39;97460.00;4848679;28;102818;-87
2021/03/13 11:08:58;;;;;;;;;2.25;1.50;;;;;13.12;39.97;97462.72;4849658;28;103009;-87
2021/03/13 11:11:25;;;;;;;;;0.50;0.50;;;;;13.13;41.09;97455.41;4849815;28;102705;-87
2021/03/13 11:13:52;;;;;;;;;1.00;1.00;;;;;13.14;40.01;97448.91;4855519;28;104407;-87
2021/03/13 11:16:22;;;;;;;;;1.50;1.50;;;;;13.15;40.90;97440.50;4872971;28;102944;-87
2021/03/13 11:18:53;;;;;;;;;2.25;1.50;;;;;13.15;40.79;97437.78;4849695;28;102804;-88
2021/03/13 11:21:21;;;;;;;;;1.00;1.00;;;;;13.16;40.99;97430.47;4866599;28;102977;-87
2021/03/13 11:23:49;;;;;;;;;2.00;2.00;;;;;13.18;40.25;97431.06;4855158;28;104159;-87
2021/03/13 11:26:17;;;;;;;;;2.00;1.00;;;;;13.18;40.61;97426.44;4854983;28;105229;-87
2021/03/13 11:28:44;;;;;;;;;1.00;1.00;;;;;13.19;40.67;97411.78;4857951;28;102849;-88
2021/03/13 11:31:11;;;;;;;;;1.00;1.00;;;;;13.23;40.80;97412.97;4855718;28;103064;-85
2021/03/13 11:33:37;;;;;;;;;1.00;1.00;;;;;13.25;41.37;97421.66;4866865;28;103919;-84
2021/03/13 11:36:05;;;;;;;;;1.00;1.00;;;;;13.33;41.21;97415.81;4861829;28;102759;-86
2021/03/13 11:38:32;;;;;;;;;1.00;1.00;;;;;13.35;40.60;97413.69;4861843;28;102724;-82